Time;durP1;ratioP1;P1;durP2;ratioP2;P2;SDS_P1;SDS_P2;PMS_P1;PMS_P2;Temp;Humidity;BMP_temperature;BMP_pressure;BME280_temperature;BME280_humidity;BME280_pressure;Samples;Min_cycle;Max_cycle;Signal;HPM_P1;HPM_P2
2022/09/26 00:01:57;;;;;;;0.00;0.00;;;;;;;;;;5035848;28;20435;-71
2022/09/26 00:04:25;;;;;;;0.03;0.03;;;;;;;;;;5058896;28;20430;-71
2022/09/26 00:06:52;;;;;;;0.10;0.10;;;;;;;;;;5050641;28;20502;-71
2022/09/26 00:09:19;;;;;;;0.10;0.10;;;;;;;;;;5039499;28;20430;-71
2022/09/26 00:11:45;;;;;;;0.00;0.00;;;;;;;;;;5050874;28;20516;-71
2022/09/26 00:14:13;;;;;;;0.10;0.10;;;;;;;;;;5037800;28;20429;-71
2022/09/26 00:16:39;;;;;;;0.00;0.00;;;;;;;;;;5048851;28;20423;-76
2022/09/26 00:19:06;;;;;;;0.00;0.00;;;;;;;;;;5043559;28;20431;-71
2022/09/26 00:21:32;;;;;;;0.20;0.20;;;;;;;;;;5047922;28;20428;-71
2022/09/26 00:23:59;;;;;;;0.10;0.10;;;;;;;;;;5030380;28;20419;-71
2022/09/26 00:26:26;;;;;;;0.10;0.10;;;;;;;;;;5053531;28;20433;-71
2022/09/26 00:28:52;;;;;;;0.20;0.10;;;;;;;;;;5051574;28;20425;-72
2022/09/26 00:31:20;;;;;;;0.10;0.10;;;;;;;;;;5053856;28;20425;-75
2022/09/26 00:33:46;;;;;;;0.10;0.10;;;;;;;;;;5049410;28;20918;-71
2022/09/26 00:36:12;;;;;;;0.40;0.40;;;;;;;;;;5058318;28;20453;-71
2022/09/26 00:38:39;;;;;;;0.10;0.10;;;;;;;;;;5061115;28;20418;-72
2022/09/26 00:41:05;;;;;;;0.00;0.00;;;;;;;;;;5053301;28;21975;-74
2022/09/26 00:43:33;;;;;;;0.10;0.10;;;;;;;;;;5051391;28;20888;-71
2022/09/26 00:46:02;;;;;;;0.10;0.10;;;;;;;;;;5051810;28;20440;-71
2022/09/26 00:48:29;;;;;;;0.10;0.10;;;;;;;;;;5059088;28;20434;-72
2022/09/26 00:50:55;;;;;;;0.00;0.00;;;;;;;;;;5051659;28;20423;-72
2022/09/26 00:53:25;;;;;;;0.10;0.10;;;;;;;;;;5034941;28;20473;-72
2022/09/26 00:55:54;;;;;;;0.10;0.10;;;;;;;;;;5046253;28;20445;-75
2022/09/26 00:58:26;;;;;;;0.10;0.10;;;;;;;;;;5052513;28;20519;-72
2022/09/26 01:00:53;;;;;;;0.00;0.00;;;;;;;;;;5054416;28;20497;-71
2022/09/26 01:03:20;;;;;;;0.10;0.10;;;;;;;;;;5055846;28;20942;-71
2022/09/26 01:05:46;;;;;;;0.10;0.10;;;;;;;;;;5048703;28;20894;-71
2022/09/26 01:08:13;;;;;;;0.00;0.00;;;;;;;;;;5056281;28;20782;-72
2022/09/26 01:10:39;;;;;;;0.20;0.20;;;;;;;;;;5043168;28;20477;-72
2022/09/26 01:13:07;;;;;;;0.10;0.10;;;;;;;;;;5051284;28;20444;-73
2022/09/26 01:15:35;;;;;;;0.10;0.10;;;;;;;;;;5049928;28;20475;-72
2022/09/26 01:18:01;;;;;;;0.10;0.10;;;;;;;;;;5059499;28;20459;-71
2022/09/26 01:20:27;;;;;;;0.00;0.00;;;;;;;;;;5054892;28;20469;-71
2022/09/26 01:22:53;;;;;;;0.10;0.10;;;;;;;;;;5057651;28;20451;-71
2022/09/26 01:25:28;;;;;;;0.00;0.00;;;;;;;;;;5054225;28;20472;-76
2022/09/26 01:27:59;;;;;;;0.10;0.10;;;;;;;;;;5054405;28;20419;-71
2022/09/26 01:30:27;;;;;;;0.10;0.10;;;;;;;;;;5059183;28;20429;-75
2022/09/26 01:32:56;;;;;;;0.00;0.00;;;;;;;;;;5051302;28;20432;-71
2022/09/26 01:35:27;;;;;;;0.10;0.10;;;;;;;;;;5048353;28;20538;-71
2022/09/26 01:37:53;;;;;;;0.10;0.10;;;;;;;;;;5056557;28;20432;-72
2022/09/26 01:40:26;;;;;;;0.10;0.10;;;;;;;;;;5050628;28;20429;-72
2022/09/26 01:43:13;;;;;;;0.10;0.10;;;;;;;;;;5054643;28;20425;-73
2022/09/26 01:45:49;;;;;;;0.00;0.00;;;;;;;;;;5053254;28;20512;-71
2022/09/26 01:48:18;;;;;;;0.10;0.10;;;;;;;;;;5058881;28;20437;-73
2022/09/26 01:50:50;;;;;;;0.10;0.10;;;;;;;;;;5052765;28;20436;-71
2022/09/26 01:53:19;;;;;;;0.10;0.10;;;;;;;;;;5053377;28;20476;-71
2022/09/26 01:55:48;;;;;;;0.10;0.10;;;;;;;;;;5049834;28;20421;-71
2022/09/26 01:58:43;;;;;;;0.00;0.00;;;;;;;;;;5057199;28;20417;-71
2022/09/26 02:01:11;;;;;;;0.10;0.10;;;;;;;;;;5023789;28;20436;-71
2022/09/26 02:03:40;;;;;;;0.10;0.10;;;;;;;;;;5056357;28;20424;-71
2022/09/26 02:06:12;;;;;;;0.10;0.10;;;;;;;;;;5054138;28;20449;-71
2022/09/26 02:08:47;;;;;;;0.00;0.00;;;;;;;;;;5035606;28;20855;-72
2022/09/26 02:11:18;;;;;;;0.00;0.00;;;;;;;;;;5064252;28;20561;-74
2022/09/26 02:14:02;;;;;;;0.20;0.20;;;;;;;;;;5036914;28;20427;-71
2022/09/26 02:16:39;;;;;;;0.10;0.10;;;;;;;;;;5049638;28;20488;-72
2022/09/26 02:19:09;;;;;;;0.10;0.10;;;;;;;;;;5060588;28;20572;-72
2022/09/26 02:21:35;;;;;;;0.40;0.40;;;;;;;;;;5055160;28;20424;-72
2022/09/26 02:24:01;;;;;;;0.10;0.10;;;;;;;;;;5039285;28;20507;-75
2022/09/26 02:26:28;;;;;;;0.10;0.10;;;;;;;;;;5054401;28;20553;-72
2022/09/26 02:28:55;;;;;;;0.00;0.00;;;;;;;;;;5059927;28;20419;-73
2022/09/26 02:31:23;;;;;;;0.00;0.00;;;;;;;;;;5059316;28;20465;-72
2022/09/26 02:33:50;;;;;;;0.10;0.10;;;;;;;;;;5052768;28;20433;-73
2022/09/26 02:36:17;;;;;;;0.10;0.10;;;;;;;;;;5048435;28;20453;-72
2022/09/26 02:38:43;;;;;;;0.00;0.00;;;;;;;;;;5039135;28;20435;-77
2022/09/26 02:41:17;;;;;;;0.00;0.00;;;;;;;;;;5055727;28;20431;-72
2022/09/26 02:43:48;;;;;;;0.07;0.07;;;;;;;;;;5058650;28;20518;-72
2022/09/26 02:46:26;;;;;;;0.90;0.90;;;;;;;;;;5052508;28;20430;-72
2022/09/26 02:49:11;;;;;;;0.50;0.20;;;;;;;;;;5054444;28;20464;-75
2022/09/26 02:51:55;;;;;;;0.05;0.05;;;;;;;;;;5055779;28;20839;-73
2022/09/26 02:54:27;;;;;;;0.00;0.00;;;;;;;;;;5062394;28;20430;-72
2022/09/26 02:56:56;;;;;;;0.05;0.05;;;;;;;;;;5059226;28;20440;-74
2022/09/26 02:59:28;;;;;;;0.13;0.13;;;;;;;;;;5064858;28;20432;-72
2022/09/26 03:02:00;;;;;;;0.30;0.30;;;;;;;;;;5059258;28;20561;-74
2022/09/26 03:04:29;;;;;;;0.10;0.10;;;;;;;;;;5056872;28;20424;-74
2022/09/26 03:06:58;;;;;;;0.10;0.10;;;;;;;;;;5055373;28;20934;-74
2022/09/26 03:09:25;;;;;;;0.10;0.10;;;;;;;;;;5055676;28;20424;-72
2022/09/26 03:11:52;;;;;;;0.00;0.00;;;;;;;;;;5057345;28;20498;-75
2022/09/26 03:14:21;;;;;;;0.10;0.10;;;;;;;;;;5049983;28;20421;-72
2022/09/26 03:16:48;;;;;;;0.00;0.00;;;;;;;;;;5055500;28;20420;-72
2022/09/26 03:19:16;;;;;;;0.00;0.00;;;;;;;;;;5057554;28;20446;-72
2022/09/26 03:21:44;;;;;;;0.03;0.03;;;;;;;;;;5054944;28;20435;-72
2022/09/26 03:24:10;;;;;;;0.10;0.10;;;;;;;;;;5056606;28;20421;-74
2022/09/26 03:26:36;;;;;;;0.20;0.20;;;;;;;;;;5044438;28;20436;-72
2022/09/26 03:29:02;;;;;;;0.10;0.10;;;;;;;;;;5050063;28;20567;-72
2022/09/26 03:31:28;;;;;;;0.10;0.10;;;;;;;;;;5051921;28;20768;-72
2022/09/26 03:33:54;;;;;;;0.10;0.10;;;;;;;;;;5033149;28;20939;-72
2022/09/26 03:36:21;;;;;;;0.10;0.10;;;;;;;;;;5056772;28;21003;-74
2022/09/26 03:38:47;;;;;;;0.00;0.00;;;;;;;;;;5036196;28;20508;-73
2022/09/26 03:41:13;;;;;;;0.03;0.03;;;;;;;;;;5060938;28;20740;-72
2022/09/26 03:43:43;;;;;;;0.10;0.10;;;;;;;;;;5058999;28;20432;-72
2022/09/26 03:46:10;;;;;;;0.00;0.00;;;;;;;;;;5054547;28;20517;-77
2022/09/26 03:48:37;;;;;;;0.00;0.00;;;;;;;;;;5053908;28;20427;-73
2022/09/26 03:51:07;;;;;;;16.00;0.50;;;;;;;;;;5060544;28;20427;-76
2022/09/26 03:53:34;;;;;;;0.10;0.10;;;;;;;;;;5058251;28;20420;-72
2022/09/26 03:56:18;;;;;;;0.20;0.20;;;;;;;;;;5049293;28;20502;-73
2022/09/26 03:58:45;;;;;;;0.03;0.03;;;;;;;;;;5039049;28;20435;-72
2022/09/26 04:01:18;;;;;;;0.10;0.10;;;;;;;;;;5059618;28;20588;-74
2022/09/26 04:03:45;;;;;;;0.10;0.10;;;;;;;;;;5058127;28;20419;-72
2022/09/26 04:06:12;;;;;;;0.10;0.10;;;;;;;;;;5037878;28;20441;-72
2022/09/26 04:08:39;;;;;;;0.20;0.20;;;;;;;;;;5049205;28;20937;-72
2022/09/26 04:11:06;;;;;;;0.10;0.10;;;;;;;;;;5060250;28;20458;-73
2022/09/26 04:13:32;;;;;;;0.10;0.10;;;;;;;;;;5037007;28;20434;-72
2022/09/26 04:15:59;;;;;;;0.10;0.10;;;;;;;;;;5060889;28;20427;-72
2022/09/26 04:18:26;;;;;;;0.05;0.05;;;;;;;;;;5052761;28;20510;-73
2022/09/26 04:20:57;;;;;;;0.40;0.20;;;;;;;;;;5037489;28;20490;-72
2022/09/26 04:23:23;;;;;;;0.20;0.20;;;;;;;;;;5053883;28;20899;-72
2022/09/26 04:25:49;;;;;;;0.10;0.10;;;;;;;;;;5050829;28;20433;-72
2022/09/26 04:28:15;;;;;;;0.10;0.10;;;;;;;;;;5042679;28;20435;-73
2022/09/26 04:30:41;;;;;;;0.03;0.03;;;;;;;;;;5051400;28;20426;-73
2022/09/26 04:33:07;;;;;;;0.60;0.60;;;;;;;;;;5032668;28;20926;-74
2022/09/26 04:35:34;;;;;;;0.30;0.30;;;;;;;;;;5051635;28;20433;-72
2022/09/26 04:38:00;;;;;;;0.03;0.03;;;;;;;;;;5056880;28;20763;-72
2022/09/26 04:40:26;;;;;;;0.10;0.10;;;;;;;;;;5037031;28;20803;-72
2022/09/26 04:42:52;;;;;;;0.10;0.10;;;;;;;;;;5061333;28;20431;-73
2022/09/26 04:45:18;;;;;;;0.10;0.10;;;;;;;;;;5055941;28;20880;-72
2022/09/26 04:47:44;;;;;;;0.20;0.20;;;;;;;;;;5051122;28;20429;-72
2022/09/26 04:50:10;;;;;;;0.40;0.40;;;;;;;;;;5056024;28;20436;-74
2022/09/26 04:52:36;;;;;;;0.10;0.10;;;;;;;;;;5031597;28;20525;-74
2022/09/26 04:55:02;;;;;;;0.10;0.10;;;;;;;;;;5048169;28;20430;-75
2022/09/26 04:57:29;;;;;;;0.00;0.00;;;;;;;;;;5055501;28;20616;-72
2022/09/26 04:59:55;;;;;;;1.10;0.70;;;;;;;;;;5051579;28;20453;-73
2022/09/26 05:02:21;;;;;;;0.00;0.00;;;;;;;;;;5049232;28;20420;-73
2022/09/26 05:04:47;;;;;;;0.10;0.10;;;;;;;;;;5042942;28;20842;-72
2022/09/26 05:07:15;;;;;;;0.10;0.10;;;;;;;;;;5024995;28;20781;-72
2022/09/26 05:09:41;;;;;;;0.40;0.40;;;;;;;;;;5023476;28;20429;-72
2022/09/26 05:12:07;;;;;;;0.10;0.10;;;;;;;;;;5052772;28;20428;-72
2022/09/26 05:14:36;;;;;;;0.00;0.00;;;;;;;;;;5046885;28;20433;-73
2022/09/26 05:17:03;;;;;;;0.10;0.10;;;;;;;;;;5021515;28;20514;-72
2022/09/26 05:19:29;;;;;;;0.80;0.50;;;;;;;;;;5055814;28;20429;-73
2022/09/26 05:21:55;;;;;;;0.08;0.08;;;;;;;;;;5036677;28;20425;-73
2022/09/26 05:27:06;;;;;;;0.20;0.20;;;;;;;;;;5006347;28;20460;-72
2022/09/26 05:29:33;;;;;;;0.10;0.10;;;;;;;;;;5039596;28;20432;-76
2022/09/26 05:32:00;;;;;;;0.30;0.30;;;;;;;;;;5052343;28;20433;-72
2022/09/26 05:34:26;;;;;;;0.10;0.10;;;;;;;;;;5043105;28;20539;-73
2022/09/26 05:36:52;;;;;;;0.10;0.10;;;;;;;;;;5054704;28;20423;-76
2022/09/26 05:42:06;;;;;;;0.10;0.10;;;;;;;;;;5048052;28;20460;-71
2022/09/26 05:44:32;;;;;;;0.10;0.10;;;;;;;;;;5050284;28;20756;-72
2022/09/26 05:46:59;;;;;;;0.10;0.10;;;;;;;;;;5051500;28;20804;-72
2022/09/26 05:49:25;;;;;;;0.10;0.10;;;;;;;;;;5043957;28;20430;-72
2022/09/26 05:51:52;;;;;;;0.00;0.00;;;;;;;;;;5054402;28;20417;-73
2022/09/26 05:54:18;;;;;;;0.10;0.10;;;;;;;;;;5039552;28;20422;-73
2022/09/26 05:56:44;;;;;;;0.10;0.10;;;;;;;;;;5031113;28;20431;-72
2022/09/26 05:59:10;;;;;;;0.13;0.13;;;;;;;;;;5050353;28;20500;-73
2022/09/26 06:01:36;;;;;;;0.35;0.35;;;;;;;;;;5026978;28;20457;-73
2022/09/26 06:04:02;;;;;;;0.10;0.10;;;;;;;;;;5026997;28;20933;-71
2022/09/26 06:06:29;;;;;;;0.10;0.10;;;;;;;;;;5043873;28;20423;-71
2022/09/26 06:08:55;;;;;;;0.10;0.10;;;;;;;;;;5045078;28;20497;-71
2022/09/26 06:11:23;;;;;;;0.20;0.20;;;;;;;;;;5038777;28;20434;-71
2022/09/26 06:13:49;;;;;;;0.10;0.10;;;;;;;;;;5054932;28;20859;-71
2022/09/26 06:16:20;;;;;;;0.10;0.10;;;;;;;;;;5033717;28;20429;-71
2022/09/26 06:18:46;;;;;;;0.75;0.55;;;;;;;;;;5035186;28;20419;-70
2022/09/26 06:21:13;;;;;;;0.10;0.10;;;;;;;;;;5036085;28;20423;-72
2022/09/26 06:23:40;;;;;;;0.10;0.10;;;;;;;;;;5052868;28;21036;-71
2022/09/26 06:26:07;;;;;;;0.10;0.10;;;;;;;;;;5055162;28;20454;-71
2022/09/26 06:28:34;;;;;;;0.10;0.10;;;;;;;;;;5067463;28;20489;-74
2022/09/26 06:31:00;;;;;;;0.10;0.10;;;;;;;;;;5052920;28;20467;-70
2022/09/26 06:33:26;;;;;;;0.00;0.00;;;;;;;;;;5038625;28;20458;-71
2022/09/26 06:36:02;;;;;;;0.20;0.20;;;;;;;;;;5051042;28;20436;-71
2022/09/26 06:38:28;;;;;;;0.20;0.20;;;;;;;;;;5035495;28;20425;-71
2022/09/26 06:40:55;;;;;;;0.10;0.10;;;;;;;;;;5047174;28;20927;-71
2022/09/26 06:43:21;;;;;;;0.20;0.20;;;;;;;;;;5063002;28;20500;-71
2022/09/26 06:45:52;;;;;;;0.00;0.00;;;;;;;;;;5067164;28;20484;-71
2022/09/26 06:48:21;;;;;;;0.00;0.00;;;;;;;;;;5047985;28;20419;-74
2022/09/26 06:50:51;;;;;;;0.10;0.10;;;;;;;;;;5036192;28;20544;-74
2022/09/26 06:53:17;;;;;;;0.35;0.35;;;;;;;;;;5049671;28;20417;-75
2022/09/26 06:55:43;;;;;;;0.20;0.20;;;;;;;;;;5026626;28;21026;-72
2022/09/26 06:58:09;;;;;;;0.17;0.17;;;;;;;;;;5039424;28;20416;-70
2022/09/26 07:00:35;;;;;;;0.10;0.10;;;;;;;;;;5041287;28;20824;-70
2022/09/26 07:03:02;;;;;;;0.10;0.10;;;;;;;;;;5053616;28;20922;-70
2022/09/26 07:05:28;;;;;;;0.00;0.00;;;;;;;;;;5052382;28;20452;-70
2022/09/26 07:07:54;;;;;;;0.30;0.30;;;;;;;;;;5059326;28;20927;-70
2022/09/26 07:10:21;;;;;;;0.25;0.25;;;;;;;;;;5059845;28;20512;-71
2022/09/26 07:12:47;;;;;;;0.00;0.00;;;;;;;;;;5057102;28;20504;-70
2022/09/26 07:15:18;;;;;;;0.00;0.00;;;;;;;;;;5039850;28;20863;-70
2022/09/26 07:17:45;;;;;;;0.10;0.10;;;;;;;;;;5055081;28;20425;-75
2022/09/26 07:20:12;;;;;;;0.03;0.03;;;;;;;;;;5057407;28;20488;-70
2022/09/26 07:22:38;;;;;;;0.90;0.60;;;;;;;;;;5040209;28;20746;-71
2022/09/26 07:25:04;;;;;;;0.13;0.13;;;;;;;;;;5058054;28;20432;-72
2022/09/26 07:27:30;;;;;;;0.00;0.00;;;;;;;;;;5034628;28;20453;-72
2022/09/26 07:29:57;;;;;;;0.38;0.38;;;;;;;;;;5054903;28;20427;-71
2022/09/26 07:32:24;;;;;;;0.10;0.10;;;;;;;;;;5058652;28;20927;-72
2022/09/26 07:34:52;;;;;;;0.10;0.10;;;;;;;;;;5032675;28;20429;-74
2022/09/26 07:37:18;;;;;;;0.10;0.10;;;;;;;;;;5054530;28;20417;-71
2022/09/26 07:39:44;;;;;;;0.05;0.05;;;;;;;;;;5062011;28;20436;-71
2022/09/26 07:42:10;;;;;;;0.10;0.10;;;;;;;;;;5061097;28;20884;-71
2022/09/26 07:44:36;;;;;;;0.10;0.10;;;;;;;;;;5036260;28;20437;-71
2022/09/26 07:52:33;;;;;;;0.00;0.00;;;;;;;;;;5043568;28;20424;-71
2022/09/26 07:54:59;;;;;;;0.10;0.10;;;;;;;;;;5048024;28;20516;-71
2022/09/26 07:57:25;;;;;;;0.10;0.10;;;;;;;;;;5051627;28;20505;-73
2022/09/26 07:59:53;;;;;;;0.10;0.10;;;;;;;;;;5043099;28;20463;-72
2022/09/26 08:02:27;;;;;;;0.10;0.10;;;;;;;;;;5058084;28;20411;-71
2022/09/26 08:04:53;;;;;;;0.00;0.00;;;;;;;;;;5062318;28;20419;-71
2022/09/26 08:07:20;;;;;;;0.10;0.10;;;;;;;;;;5035917;28;20479;-72
2022/09/26 08:09:47;;;;;;;0.10;0.10;;;;;;;;;;5058592;28;20425;-72
2022/09/26 08:12:13;;;;;;;0.00;0.00;;;;;;;;;;5057966;28;20438;-71
2022/09/26 08:14:40;;;;;;;18.20;0.80;;;;;;;;;;5046901;28;20986;-71
2022/09/26 08:17:06;;;;;;;0.10;0.10;;;;;;;;;;5039353;28;20422;-71
2022/09/26 08:19:32;;;;;;;0.10;0.10;;;;;;;;;;5057190;28;20417;-70
2022/09/26 08:21:58;;;;;;;0.10;0.10;;;;;;;;;;5041237;28;20432;-70
2022/09/26 08:24:24;;;;;;;0.10;0.10;;;;;;;;;;5052244;28;20425;-72
2022/09/26 08:26:52;;;;;;;0.00;0.00;;;;;;;;;;5043124;28;20496;-71
2022/09/26 08:29:18;;;;;;;0.10;0.10;;;;;;;;;;5022709;28;20434;-72
2022/09/26 08:31:44;;;;;;;0.10;0.10;;;;;;;;;;5042081;28;20425;-72
2022/09/26 08:34:10;;;;;;;0.20;0.20;;;;;;;;;;5049247;28;21013;-71
2022/09/26 08:36:37;;;;;;;0.00;0.00;;;;;;;;;;5059505;28;20569;-71
2022/09/26 08:39:06;;;;;;;0.88;0.57;;;;;;;;;;5061901;28;20419;-73
2022/09/26 08:41:38;;;;;;;0.10;0.10;;;;;;;;;;5039643;28;20437;-72
2022/09/26 08:44:10;;;;;;;1.90;0.30;;;;;;;;;;5053142;28;20505;-71
2022/09/26 08:46:48;;;;;;;0.10;0.10;;;;;;;;;;5051577;28;20468;-73
2022/09/26 08:49:41;;;;;;;0.10;0.10;;;;;;;;;;5049716;28;20784;-72
2022/09/26 08:52:22;;;;;;;0.90;0.80;;;;;;;;;;5026268;28;20513;-71
2022/09/26 08:54:49;;;;;;;0.05;0.05;;;;;;;;;;5054921;28;20463;-72
2022/09/26 08:57:31;;;;;;;0.00;0.00;;;;;;;;;;5038457;28;20467;-72
2022/09/26 08:59:57;;;;;;;0.20;0.20;;;;;;;;;;5054137;28;20835;-71
2022/09/26 09:02:23;;;;;;;0.90;0.80;;;;;;;;;;5035682;28;20903;-72
2022/09/26 09:04:56;;;;;;;0.10;0.10;;;;;;;;;;5057774;28;20442;-72
2022/09/26 09:07:23;;;;;;;0.20;0.20;;;;;;;;;;5064279;28;20432;-71
2022/09/26 09:09:51;;;;;;;0.10;0.10;;;;;;;;;;5054481;28;22431;-72
2022/09/26 09:12:23;;;;;;;0.10;0.10;;;;;;;;;;5031585;28;20435;-72
2022/09/26 09:14:51;;;;;;;0.10;0.10;;;;;;;;;;5045743;28;20426;-72
2022/09/26 09:17:29;;;;;;;0.55;0.45;;;;;;;;;;5036671;28;20449;-72
2022/09/26 09:20:01;;;;;;;0.40;0.40;;;;;;;;;;5043017;28;20508;-72
2022/09/26 09:22:40;;;;;;;0.10;0.10;;;;;;;;;;5030668;28;20430;-72
2022/09/26 09:25:12;;;;;;;0.10;0.10;;;;;;;;;;5035157;28;20423;-72
2022/09/26 09:27:59;;;;;;;0.10;0.10;;;;;;;;;;5013974;28;20430;-72
2022/09/26 09:30:28;;;;;;;0.00;0.00;;;;;;;;;;5039184;28;20453;-73
2022/09/26 09:32:59;;;;;;;0.10;0.10;;;;;;;;;;5047902;28;20429;-73
2022/09/26 09:35:37;;;;;;;0.00;0.00;;;;;;;;;;5039214;28;20772;-72
2022/09/26 09:38:05;;;;;;;0.03;0.03;;;;;;;;;;5044486;28;20402;-73
2022/09/26 09:40:35;;;;;;;0.30;0.30;;;;;;;;;;5039820;28;20424;-74
2022/09/26 09:43:03;;;;;;;0.10;0.10;;;;;;;;;;5055309;28;20424;-72
2022/09/26 09:45:39;;;;;;;0.10;0.10;;;;;;;;;;5039444;28;20834;-72
2022/09/26 09:48:09;;;;;;;0.10;0.10;;;;;;;;;;5058430;28;20473;-72
2022/09/26 09:50:42;;;;;;;0.10;0.10;;;;;;;;;;5052485;28;20467;-75
2022/09/26 09:53:08;;;;;;;0.00;0.00;;;;;;;;;;5055482;28;20909;-73
2022/09/26 09:55:43;;;;;;;0.10;0.10;;;;;;;;;;5033234;28;20471;-72
2022/09/26 09:58:23;;;;;;;0.10;0.10;;;;;;;;;;5042951;28;20491;-72
2022/09/26 10:01:12;;;;;;;0.10;0.10;;;;;;;;;;5034649;28;20905;-72
2022/09/26 10:03:48;;;;;;;0.10;0.10;;;;;;;;;;5019184;28;20427;-74
2022/09/26 10:06:14;;;;;;;0.00;0.00;;;;;;;;;;5053911;28;20420;-72
2022/09/26 10:08:41;;;;;;;0.05;0.05;;;;;;;;;;5040268;28;20480;-74
2022/09/26 10:11:21;;;;;;;0.10;0.10;;;;;;;;;;5037708;28;20491;-72
2022/09/26 10:13:49;;;;;;;1.30;0.30;;;;;;;;;;5048549;28;20528;-74
2022/09/26 10:16:15;;;;;;;0.10;0.10;;;;;;;;;;5027266;28;20948;-74
2022/09/26 10:18:54;;;;;;;0.10;0.10;;;;;;;;;;5058003;28;20416;-76
2022/09/26 10:21:21;;;;;;;0.00;0.00;;;;;;;;;;5055327;28;20458;-77
2022/09/26 10:23:49;;;;;;;0.20;0.20;;;;;;;;;;5030132;28;20820;-76
2022/09/26 10:26:16;;;;;;;0.10;0.10;;;;;;;;;;5060050;28;20493;-77
2022/09/26 10:28:47;;;;;;;0.00;0.00;;;;;;;;;;5054116;28;20421;-75
2022/09/26 10:31:34;;;;;;;0.10;0.10;;;;;;;;;;5015013;28;20437;-75
2022/09/26 10:34:21;;;;;;;0.00;0.00;;;;;;;;;;5025071;28;20507;-74
2022/09/26 10:36:47;;;;;;;0.20;0.20;;;;;;;;;;5054392;28;20431;-74
2022/09/26 10:42:02;;;;;;;0.10;0.10;;;;;;;;;;5040957;28;20494;-74
2022/09/26 10:44:33;;;;;;;5.60;0.80;;;;;;;;;;5045885;28;20425;-75
2022/09/26 10:47:07;;;;;;;0.10;0.10;;;;;;;;;;5048553;28;20463;-74
2022/09/26 10:49:45;;;;;;;1.10;0.60;;;;;;;;;;5038981;28;20469;-74
2022/09/26 10:52:29;;;;;;;0.17;0.17;;;;;;;;;;5044407;28;20428;-76
2022/09/26 10:54:56;;;;;;;2.70;0.50;;;;;;;;;;5055036;28;20521;-75
2022/09/26 10:57:32;;;;;;;0.10;0.10;;;;;;;;;;5028588;28;20429;-75
2022/09/26 11:00:00;;;;;;;0.00;0.00;;;;;;;;;;5034897;28;20425;-74
2022/09/26 11:02:27;;;;;;;0.00;0.00;;;;;;;;;;5030006;28;20424;-75
2022/09/26 11:07:46;;;;;;;2.03;0.40;;;;;;;;;;5057063;28;20433;-77
2022/09/26 11:10:14;;;;;;;0.90;0.60;;;;;;;;;;5027762;28;20426;-74
2022/09/26 11:13:16;;;;;;;0.00;0.00;;;;;;;;;;5062417;28;20915;-75
2022/09/26 11:16:02;;;;;;;0.10;0.10;;;;;;;;;;4923856;29;20439;-75
2022/09/26 11:18:42;;;;;;;0.10;0.10;;;;;;;;;;5016337;28;20489;-75
2022/09/26 11:21:28;;;;;;;0.00;0.00;;;;;;;;;;5040949;28;20419;-74
2022/09/26 11:24:13;;;;;;;0.00;0.00;;;;;;;;;;5026716;28;20433;-76
2022/09/26 11:26:48;;;;;;;0.10;0.10;;;;;;;;;;5033556;28;20546;-75
2022/09/26 11:29:15;;;;;;;0.40;0.30;;;;;;;;;;5031089;28;20500;-75
2022/09/26 11:31:42;;;;;;;0.10;0.10;;;;;;;;;;5036216;28;20426;-76
2022/09/26 11:34:25;;;;;;;0.10;0.10;;;;;;;;;;5047367;28;20524;-75
2022/09/26 11:36:51;;;;;;;0.10;0.10;;;;;;;;;;5024115;28;20441;-75
2022/09/26 11:39:21;;;;;;;0.20;0.20;;;;;;;;;;5020527;28;20526;-74
2022/09/26 11:42:03;;;;;;;3.80;1.00;;;;;;;;;;5046926;28;20436;-74
2022/09/26 11:44:52;;;;;;;0.10;0.10;;;;;;;;;;5020662;28;20904;-78
2022/09/26 11:47:37;;;;;;;0.20;0.20;;;;;;;;;;5058327;28;20479;-75
2022/09/26 11:50:13;;;;;;;0.10;0.10;;;;;;;;;;5034159;28;20436;-74
2022/09/26 11:52:43;;;;;;;0.00;0.00;;;;;;;;;;5035679;28;20448;-74
2022/09/26 11:55:25;;;;;;;0.17;0.17;;;;;;;;;;5058609;28;20460;-74
2022/09/26 11:58:00;;;;;;;0.10;0.10;;;;;;;;;;5024210;28;20911;-72
2022/09/26 12:00:49;;;;;;;0.10;0.10;;;;;;;;;;5035718;28;20961;-75
2022/09/26 12:03:26;;;;;;;0.10;0.10;;;;;;;;;;5000498;28;20429;-77
2022/09/26 12:05:53;;;;;;;0.20;0.20;;;;;;;;;;5063328;28;20926;-78
2022/09/26 12:08:38;;;;;;;0.10;0.10;;;;;;;;;;5036500;28;20429;-75
2022/09/26 12:11:25;;;;;;;0.10;0.10;;;;;;;;;;5049636;28;20467;-84
2022/09/26 12:13:52;;;;;;;0.03;0.03;;;;;;;;;;5025656;28;20452;-82
2022/09/26 12:16:28;;;;;;;0.10;0.10;;;;;;;;;;5027997;28;20438;-86
2022/09/26 12:18:58;;;;;;;0.10;0.10;;;;;;;;;;5042766;28;20461;-83
2022/09/26 12:21:24;;;;;;;0.10;0.10;;;;;;;;;;5034850;28;20437;-83
2022/09/26 12:23:50;;;;;;;0.10;0.10;;;;;;;;;;5017551;28;20921;-80
2022/09/26 12:26:35;;;;;;;0.10;0.10;;;;;;;;;;5032776;28;20403;-79
2022/09/26 12:29:13;;;;;;;0.20;0.20;;;;;;;;;;5036463;28;20436;-76
2022/09/26 12:31:55;;;;;;;0.03;0.03;;;;;;;;;;5034551;28;20506;-77
2022/09/26 12:34:36;;;;;;;0.10;0.10;;;;;;;;;;5032623;28;20948;-76
2022/09/26 12:37:09;;;;;;;0.90;0.60;;;;;;;;;;5040833;28;20427;-77
2022/09/26 12:39:41;;;;;;;0.10;0.10;;;;;;;;;;5036064;28;20820;-77
2022/09/26 12:42:14;;;;;;;0.10;0.10;;;;;;;;;;5056444;28;20468;-81
2022/09/26 12:44:49;;;;;;;0.10;0.10;;;;;;;;;;5041292;28;20944;-79
2022/09/26 12:47:34;;;;;;;0.10;0.10;;;;;;;;;;5016434;28;20438;-79
2022/09/26 12:50:05;;;;;;;0.20;0.20;;;;;;;;;;5026546;28;20438;-81
2022/09/26 12:52:51;;;;;;;0.10;0.10;;;;;;;;;;5040696;28;20760;-76
2022/09/26 12:55:32;;;;;;;0.10;0.10;;;;;;;;;;5022177;28;20433;-80
2022/09/26 12:58:15;;;;;;;0.30;0.30;;;;;;;;;;5039692;28;20846;-78
2022/09/26 13:00:53;;;;;;;0.10;0.10;;;;;;;;;;5042832;28;20431;-77
2022/09/26 13:03:22;;;;;;;0.00;0.00;;;;;;;;;;5027314;28;20428;-78
2022/09/26 13:06:03;;;;;;;0.10;0.10;;;;;;;;;;5044208;28;20438;-79
2022/09/26 13:08:33;;;;;;;0.10;0.10;;;;;;;;;;5060423;28;20424;-76
2022/09/26 13:11:18;;;;;;;0.10;0.10;;;;;;;;;;5043616;28;20437;-78
2022/09/26 13:13:53;;;;;;;0.10;0.10;;;;;;;;;;5052494;28;20433;-82
2022/09/26 13:16:34;;;;;;;0.00;0.00;;;;;;;;;;5022520;28;20511;-80
2022/09/26 13:19:05;;;;;;;0.10;0.10;;;;;;;;;;5050186;28;20520;-88
2022/09/26 13:21:39;;;;;;;0.10;0.10;;;;;;;;;;5034845;28;20978;-78
2022/09/26 13:24:12;;;;;;;0.10;0.10;;;;;;;;;;5037922;28;20903;-82
2022/09/26 13:26:44;;;;;;;0.10;0.10;;;;;;;;;;5028547;28;20458;-83
2022/09/26 13:29:42;;;;;;;0.20;0.20;;;;;;;;;;5045071;28;20733;-83
2022/09/26 13:32:08;;;;;;;0.10;0.10;;;;;;;;;;4981957;28;20453;-84
2022/09/26 13:34:46;;;;;;;0.10;0.10;;;;;;;;;;5039952;28;20525;-83
2022/09/26 13:37:33;;;;;;;0.00;0.00;;;;;;;;;;5051706;28;21050;-87
2022/09/26 13:40:05;;;;;;;0.10;0.10;;;;;;;;;;4983398;28;20450;-84
2022/09/26 13:42:41;;;;;;;0.10;0.10;;;;;;;;;;5037108;28;20427;-84
2022/09/26 13:45:19;;;;;;;0.10;0.10;;;;;;;;;;5026839;28;20505;-83
2022/09/26 13:47:49;;;;;;;0.20;0.20;;;;;;;;;;5013946;28;20440;-85
2022/09/26 13:50:15;;;;;;;0.10;0.10;;;;;;;;;;5030132;28;20461;-87
2022/09/26 13:52:51;;;;;;;0.10;0.10;;;;;;;;;;5048020;28;20483;-88
2022/09/26 13:55:18;;;;;;;0.10;0.10;;;;;;;;;;5027462;28;20431;-88
2022/09/26 13:57:48;;;;;;;0.00;0.00;;;;;;;;;;5021702;28;20426;-87
2022/09/26 14:00:15;;;;;;;0.40;0.40;;;;;;;;;;5017365;28;21262;-85
2022/09/26 14:02:42;;;;;;;0.10;0.10;;;;;;;;;;5014313;28;20438;-84
2022/09/26 14:05:17;;;;;;;0.10;0.10;;;;;;;;;;5012751;28;20437;-82
2022/09/26 14:10:35;;;;;;;0.10;0.10;;;;;;;;;;5035239;28;20425;-82
2022/09/26 14:13:07;;;;;;;0.10;0.10;;;;;;;;;;5019306;28;20427;-80
2022/09/26 14:15:46;;;;;;;0.10;0.10;;;;;;;;;;5013068;28;20431;-85
2022/09/26 14:18:15;;;;;;;0.10;0.10;;;;;;;;;;5032058;28;20490;-77
2022/09/26 14:20:55;;;;;;;0.10;0.10;;;;;;;;;;5055676;28;20497;-77
2022/09/26 14:23:34;;;;;;;0.20;0.20;;;;;;;;;;5054197;28;20435;-80
2022/09/26 14:26:14;;;;;;;0.10;0.10;;;;;;;;;;5027409;28;20437;-79
2022/09/26 14:28:46;;;;;;;0.10;0.10;;;;;;;;;;5040253;28;20495;-77
2022/09/26 14:31:17;;;;;;;0.10;0.10;;;;;;;;;;5048474;28;20456;-75
2022/09/26 14:33:45;;;;;;;0.17;0.17;;;;;;;;;;5041843;28;20439;-75
2022/09/26 14:36:17;;;;;;;0.00;0.00;;;;;;;;;;5062779;28;20785;-74
2022/09/26 14:38:48;;;;;;;0.10;0.10;;;;;;;;;;5064976;28;20486;-76
2022/09/26 14:41:21;;;;;;;0.10;0.10;;;;;;;;;;5032075;28;20423;-78
2022/09/26 14:43:49;;;;;;;0.10;0.10;;;;;;;;;;5041679;28;20438;-74
2022/09/26 14:46:16;;;;;;;0.10;0.10;;;;;;;;;;5039004;28;20443;-79
2022/09/26 14:48:43;;;;;;;0.10;0.10;;;;;;;;;;5061526;28;20779;-76
2022/09/26 14:51:17;;;;;;;0.10;0.10;;;;;;;;;;5059554;28;20434;-76
2022/09/26 14:53:49;;;;;;;0.10;0.10;;;;;;;;;;5033943;28;20439;-74
2022/09/26 14:56:17;;;;;;;0.00;0.00;;;;;;;;;;5037277;28;20456;-75
2022/09/26 14:58:46;;;;;;;0.05;0.05;;;;;;;;;;5038718;28;20449;-76
2022/09/26 15:01:18;;;;;;;0.00;0.00;;;;;;;;;;5039839;28;20483;-76
2022/09/26 15:03:59;;;;;;;0.10;0.10;;;;;;;;;;5055069;28;20438;-77
2022/09/26 15:06:27;;;;;;;0.20;0.20;;;;;;;;;;5060939;28;20419;-75
2022/09/26 15:08:53;;;;;;;0.10;0.10;;;;;;;;;;5058210;28;20441;-78
2022/09/26 15:11:43;;;;;;;0.70;0.30;;;;;;;;;;5040339;28;20429;-75
2022/09/26 15:14:32;;;;;;;0.10;0.10;;;;;;;;;;5041271;28;20459;-79
2022/09/26 15:17:00;;;;;;;0.10;0.10;;;;;;;;;;5028611;28;20482;-79
2022/09/26 15:19:34;;;;;;;0.10;0.10;;;;;;;;;;5054262;28;20810;-73
2022/09/26 15:22:12;;;;;;;0.10;0.10;;;;;;;;;;5031482;28;20427;-74
2022/09/26 15:24:38;;;;;;;0.10;0.10;;;;;;;;;;5064077;28;20445;-74